createdAt,value
2019-05-07T01:09:55.720Z,7.67
2019-05-07T01:21:52.540Z,8.90
2019-05-07T01:32:59.578Z,8.10
2019-05-07T01:43:22.649Z,9.23
2019-05-07T01:49:55.105Z,8.83
2019-05-07T01:53:03.829Z,9.90
2019-05-07T02:00:02.759Z,8.83
2019-05-07T02:19:25.333Z,9.20
2019-05-07T02:25:53.905Z,8.37
2019-05-07T02:29:13.329Z,8.47
2019-05-07T02:32:24.022Z,8.87
2019-05-07T02:35:25.663Z,8.57
2019-05-07T02:39:54.139Z,7.97
2019-05-07T02:42:03.725Z,8.47
2019-05-07T02:45:05.280Z,7.90
2019-05-07T02:51:06.817Z,7.97
2019-05-07T02:54:28.167Z,7.17
2019-05-07T02:58:03.437Z,8.40
2019-05-07T03:08:44.533Z,8.57
2019-05-07T03:27:34.288Z,8.63
2019-05-07T03:30:56.552Z,8.27
2019-05-07T03:36:46.321Z,8.77
2019-05-07T03:43:05.907Z,8.30
2019-05-07T03:47:02.193Z,8.53
2019-05-07T04:07:13.692Z,9.10
2019-05-07T04:10:10.011Z,8.80
2019-05-07T04:12:53.387Z,8.87
2019-05-07T04:15:57.473Z,9.80
2019-05-07T04:25:17.695Z,10.97
2019-05-07T04:28:27.202Z,10.17
2019-05-07T04:38:35.770Z,12.10
2019-05-07T04:41:36.876Z,11.60
2019-05-07T04:48:25.351Z,11.70
2019-05-07T04:54:43.476Z,11.70
2019-05-07T04:57:33.036Z,12.33
2019-05-07T05:00:39.662Z,12.57
2019-05-07T05:03:35.548Z,13.03
2019-05-07T05:06:05.770Z,13.17
2019-05-07T05:12:42.839Z,12.87
2019-05-07T05:15:52.754Z,13.73
2019-05-07T05:29:13.023Z,15.63
2019-05-07T05:31:42.264Z,16.00
2019-05-07T05:37:38.992Z,17.27
2019-05-07T05:40:12.183Z,18.00
2019-05-07T05:42:58.107Z,17.73
2019-05-07T05:45:37.639Z,18.57
2019-05-07T05:48:08.483Z,18.10
2019-05-07T05:50:59.618Z,18.93
2019-05-07T05:53:36.501Z,18.53
2019-05-07T05:56:18.977Z,19.20
2019-05-07T05:58:59.102Z,19.33
2019-05-07T06:01:52.109Z,18.53
2019-05-07T06:04:28.179Z,18.47
2019-05-07T06:07:22.547Z,18.33
2019-05-07T06:23:47.624Z,19.20
2019-05-07T15:03:12.271Z,7.77
2019-05-07T15:05:48.665Z,7.13
2019-05-07T15:08:17.204Z,6.63
2019-05-07T15:10:45.915Z,7.50
2019-05-07T15:13:17.624Z,7.47
2019-05-07T15:15:46.027Z,6.80
2019-05-07T15:18:32.357Z,6.83
2019-05-07T15:21:01.870Z,7.53
2019-05-07T15:23:33.239Z,6.87
2019-05-07T15:26:04.605Z,7.43
2019-05-07T15:28:32.394Z,7.27
2019-05-07T15:31:09.778Z,7.37
2019-05-07T15:33:38.268Z,7.77
2019-05-07T15:36:06.813Z,8.13
2019-05-07T15:38:45.119Z,7.57
2019-05-07T15:41:19.645Z,7.50
2019-05-07T15:43:52.651Z,8.23
2019-05-07T15:46:22.691Z,7.70
2019-05-07T15:48:52.878Z,7.77
2019-05-07T15:51:23.664Z,8.60
2019-05-07T15:53:55.159Z,7.90
2019-05-07T15:56:24.411Z,8.40
2019-05-07T15:59:02.267Z,8.33
2019-05-07T16:01:37.287Z,7.67
2019-05-07T16:04:19.927Z,8.10
2019-05-07T16:06:42.610Z,8.47
2019-05-07T16:09:12.868Z,7.97
2019-05-07T16:11:44.407Z,9.30
2019-05-07T16:31:38.268Z,9.37
2019-05-07T16:37:22.904Z,9.63
2019-05-07T16:42:32.208Z,9.23
2019-05-07T16:45:03.807Z,9.50
2019-05-07T16:47:34.234Z,9.33
2019-05-07T16:50:13.031Z,9.10
2019-05-07T16:52:46.273Z,9.83
2019-05-07T16:55:25.890Z,10.10
2019-05-07T16:58:06.051Z,9.63
2019-05-07T17:01:03.823Z,9.43
2019-05-07T17:03:44.866Z,10.00
2019-05-07T17:06:16.562Z,10.73
2019-05-07T17:08:55.339Z,9.93
2019-05-07T17:11:24.316Z,10.83
2019-05-07T17:14:02.425Z,10.23
2019-05-07T17:16:38.439Z,9.83
2019-05-07T17:19:11.937Z,9.93
2019-05-07T17:21:47.975Z,10.87
2019-05-07T17:24:22.310Z,10.07
2019-05-07T17:26:58.066Z,10.87
2019-05-07T17:30:38.263Z,10.23
2019-05-07T17:32:57.139Z,10.60
2019-05-07T17:35:34.541Z,10.10
2019-05-07T17:38:07.365Z,9.97
2019-05-07T17:40:43.193Z,9.60
2019-05-07T17:46:02.834Z,10.10
2019-05-07T17:48:32.785Z,10.77
2019-05-07T17:51:23.505Z,10.50
2019-05-07T17:53:59.734Z,10.47
2019-05-07T17:56:22.691Z,9.87
2019-05-07T17:58:52.213Z,9.73
2019-05-07T18:01:50.203Z,10.33
2019-05-07T18:04:19.144Z,9.40
2019-05-07T18:06:47.746Z,10.10
2019-05-07T18:09:16.317Z,10.03
2019-05-07T18:11:52.257Z,10.77
2019-05-07T18:14:22.837Z,10.00
2019-05-07T18:17:13.752Z,9.90
2019-05-07T18:19:47.181Z,10.60
2019-05-07T18:22:18.730Z,10.63
2019-05-07T18:24:47.873Z,11.13
2019-05-07T18:27:25.647Z,10.57
2019-05-07T18:29:54.807Z,10.90
2019-05-07T18:32:36.568Z,10.97
2019-05-07T18:35:08.179Z,11.10
2019-05-07T18:37:49.599Z,10.63
2019-05-07T18:40:27.816Z,10.77
2019-05-07T18:42:56.989Z,10.90
2019-05-07T18:45:27.651Z,11.23
2019-05-07T18:47:59.402Z,11.37
2019-05-07T18:50:33.204Z,11.17
2019-05-07T18:53:05.167Z,11.17
2019-05-07T18:55:34.005Z,11.50
2019-05-07T18:58:02.910Z,11.30
2019-05-07T19:00:38.348Z,11.40
2019-05-07T19:03:07.966Z,11.70
2019-05-07T19:05:36.628Z,11.30
2019-05-07T19:08:12.388Z,11.60
2019-05-07T19:10:42.983Z,12.13
2019-05-07T19:13:11.867Z,11.40
2019-05-07T19:15:45.017Z,12.13
2019-05-07T19:18:16.432Z,12.37
2019-05-07T19:20:46.821Z,13.07
2019-05-07T19:23:24.025Z,12.50
2019-05-07T19:25:52.829Z,13.13
2019-05-07T19:28:22.599Z,12.77
2019-05-07T19:30:58.777Z,12.40
2019-05-07T19:34:09.071Z,13.17
2019-05-07T19:36:59.080Z,13.03
2019-05-07T19:43:16.836Z,12.73
2019-05-07T19:45:52.353Z,12.90
2019-05-07T19:51:39.098Z,11.80
2019-05-07T20:00:57.083Z,11.80
2019-05-07T20:03:23.662Z,12.37
2019-05-07T20:05:52.603Z,12.80
2019-05-07T20:08:21.383Z,12.47
2019-05-07T20:10:59.654Z,11.87
2019-05-07T20:13:32.760Z,12.80
2019-05-07T20:16:17.228Z,12.67
2019-05-07T20:18:54.410Z,11.97
2019-05-07T20:21:48.832Z,12.80
2019-05-07T20:24:46.744Z,13.40
2019-05-07T20:27:35.946Z,13.50
2019-05-07T20:30:07.265Z,14.53
2019-05-07T20:32:44.533Z,13.47
2019-05-07T20:35:15.368Z,14.03
2019-05-07T20:37:49.228Z,14.60
2019-05-07T20:40:25.802Z,14.87
2019-05-07T20:43:15.879Z,15.30
2019-05-07T20:46:12.923Z,15.23
2019-05-07T20:51:32.537Z,14.77
2019-05-07T20:54:15.327Z,14.47
2019-05-07T20:56:59.337Z,14.97
2019-05-07T20:59:40.173Z,15.30
2019-05-07T21:02:12.329Z,16.13
2019-05-07T21:04:43.826Z,14.67
2019-05-07T21:07:12.317Z,15.33
2019-05-07T21:09:44.090Z,14.80
2019-05-07T21:12:13.028Z,15.50
2019-05-07T21:14:52.399Z,14.87
2019-05-07T21:17:46.522Z,15.83
2019-05-07T21:20:15.978Z,15.10
2019-05-07T21:22:44.704Z,15.83
2019-05-07T21:25:13.296Z,14.93
2019-05-07T21:27:43.122Z,14.97
2019-05-07T21:30:13.086Z,14.27
2019-05-07T21:32:42.170Z,13.77
2019-05-07T21:35:11.230Z,14.57
2019-05-07T21:37:41.798Z,15.10
2019-05-07T21:40:13.004Z,15.30
2019-05-07T21:42:42.555Z,15.00
2019-05-07T21:45:11.308Z,14.90
2019-05-07T21:47:40.334Z,14.63
2019-05-07T21:50:08.844Z,14.67
2019-05-07T21:52:39.630Z,14.77
2019-05-07T21:55:41.797Z,14.43
2019-05-07T21:58:38.520Z,13.53
2019-05-07T22:01:29.287Z,13.53
2019-05-07T22:03:58.211Z,14.27
2019-05-07T22:06:26.774Z,14.40
2019-05-07T22:08:55.866Z,13.93
2019-05-07T22:11:24.665Z,13.60
2019-05-07T22:13:54.836Z,13.37
2019-05-07T22:16:24.014Z,13.77
2019-05-07T22:18:52.388Z,13.63
2019-05-07T22:21:21.700Z,13.70
2019-05-07T22:23:52.196Z,13.70
2019-05-07T22:26:23.853Z,13.83
2019-05-07T22:28:54.145Z,13.77
2019-05-07T22:31:43.889Z,13.67
2019-05-07T22:34:16.685Z,13.77
2019-05-07T22:36:45.349Z,13.30
2019-05-07T22:39:13.945Z,14.30
2019-05-07T22:41:42.626Z,13.07
2019-05-07T22:44:12.028Z,14.40
2019-05-07T22:46:42.128Z,12.93
2019-05-07T22:49:12.287Z,13.23
2019-05-07T22:51:41.298Z,12.47
2019-05-07T22:54:11.705Z,13.07
2019-05-07T22:56:57.287Z,12.73
2019-05-07T22:59:26.020Z,13.27
2019-05-07T23:01:55.968Z,12.90
2019-05-07T23:04:24.565Z,12.70
2019-05-07T23:06:53.611Z,11.73
2019-05-07T23:09:22.594Z,11.37
2019-05-07T23:11:52.645Z,12.13
2019-05-07T23:14:22.627Z,12.37
2019-05-07T23:16:52.636Z,12.00
2019-05-07T23:19:22.387Z,12.27
2019-05-07T23:21:53.055Z,11.10
2019-05-07T23:24:22.577Z,11.83
2019-05-07T23:26:53.717Z,11.37
2019-05-07T23:29:22.588Z,11.37
2019-05-07T23:31:52.781Z,11.70
2019-05-07T23:34:22.084Z,11.63
2019-05-07T23:36:53.338Z,11.10
2019-05-07T23:39:23.900Z,11.07
2019-05-07T23:42:02.139Z,11.50
2019-05-07T23:44:30.631Z,11.27
2019-05-07T23:46:59.282Z,11.00
2019-05-07T23:49:28.201Z,11.27
2019-05-07T23:51:56.762Z,10.63
2019-05-07T23:54:25.469Z,11.37
2019-05-07T23:57:05.916Z,11.40
2019-05-07T23:59:27.098Z,10.27
